Station Historical Data
Daily Summary for May 17, 2017 Units:  English    Metric   Both
« Previous Day
Next Day »
Daily Weekly Monthly Yearly Custom
  High: Low: Average:
Temperature: 83.0 °F 59.8 °F 73.4 °F
Dew Point: 62.5 °F 52.9 °F 59.2 °F
Humidity: 78% 46% 62%
Wind Speed: 15.0mph 0.0mph 5.1mph
Wind Gust: 29.0mph - -
Wind- - SW
Pressure: 29.90 in 29.78 in -
Precipitation: 0.00 in    
Historical Graphs
 
 
Tabular Data for May 17, 2017
Time Temperature Dew Point Pressure Wind Wind Speed Wind Gust Humidity Rainfall Rate (Hourly)
00:04 60.8 °F 53.5 °F 29.83 in Calm     77% 0.00 in
00:09 60.7 °F 53.4 °F 29.83 in Calm     77% 0.00 in
00:14 60.6 °F 53.3 °F 29.83 in Calm     77% 0.00 in
00:19 60.5 °F 53.3 °F 29.83 in Calm     77% 0.00 in
00:24 60.2 °F 53.3 °F 29.83 in Calm     78% 0.00 in
00:29 60.1 °F 53.2 °F 29.83 in Calm     78% 0.00 in
00:34 59.9 °F 53.0 °F 29.83 in Calm     78% 0.00 in
00:39 59.9 °F 53.0 °F 29.83 in Calm     78% 0.00 in
00:44 59.8 °F 52.9 °F 29.83 in Calm     78% 0.00 in
00:49 60.0 °F 53.1 °F 29.83 in Calm     78% 0.00 in
00:54 60.5 °F 53.6 °F 29.83 in Calm     78% 0.00 in
00:59 61.3 °F 54.0 °F 29.83 in Calm     77% 0.00 in
01:04 62.1 °F 54.4 °F 29.82 in Calm     76% 0.00 in
01:09 63.2 °F 55.1 °F 29.82 in Calm   4.0 mph 75% 0.00 in
01:14 64.2 °F 55.7 °F 29.82 in SW 1.0 mph 4.0 mph 74% 0.00 in
01:19 65.5 °F 56.6 °F 29.82 in SW 2.0 mph 4.0 mph 73% 0.00 in
01:24 67.1 °F 57.8 °F 29.82 in WSW 3.0 mph 5.0 mph 72% 0.00 in
01:29 68.1 °F 57.9 °F 29.82 in SW 2.0 mph 7.0 mph 70% 0.00 in
01:34 68.9 °F 58.3 °F 29.82 in SW 3.0 mph 7.0 mph 69% 0.00 in
01:39 69.6 °F 58.2 °F 29.82 in SW 3.0 mph 7.0 mph 67% 0.00 in
01:44 69.5 °F 58.1 °F 29.82 in SSW 2.0 mph 7.0 mph 67% 0.00 in
01:49 69.8 °F 58.3 °F 29.82 in West 6.0 mph 9.0 mph 67% 0.00 in
01:54 70.2 °F 58.3 °F 29.82 in SW 2.0 mph 6.0 mph 66% 0.00 in
01:59 70.4 °F 58.5 °F 29.82 in SW 3.0 mph 9.0 mph 66% 0.00 in
02:04 70.6 °F 58.7 °F 29.83 in SW 3.0 mph 9.0 mph 66% 0.00 in
02:09 70.3 °F 58.4 °F 29.82 in South 5.0 mph 7.0 mph 66% 0.00 in
02:14 70.3 °F 58.4 °F 29.83 in SW 2.0 mph 7.0 mph 66% 0.00 in
02:19 70.0 °F 58.5 °F 29.82 in SW 2.0 mph 6.0 mph 67% 0.00 in
02:24 70.0 °F 58.5 °F 29.82 in SW 2.0 mph 5.0 mph 67% 0.00 in
02:29 70.1 °F 58.6 °F 29.82 in SW 2.0 mph 5.0 mph 67% 0.00 in
02:34 69.8 °F 58.3 °F 29.82 in Calm   3.0 mph 67% 0.00 in
02:39 70.0 °F 58.5 °F 29.82 in WSW 3.0 mph 6.0 mph 67% 0.00 in
02:44 69.8 °F 58.8 °F 29.82 in WSW 2.0 mph 6.0 mph 68% 0.00 in
02:49 69.7 °F 58.7 °F 29.82 in Calm   7.0 mph 68% 0.00 in
02:54 70.2 °F 59.1 °F 29.83 in SW 3.0 mph 8.0 mph 68% 0.00 in
02:59 70.5 °F 59.0 °F 29.83 in SW 3.0 mph 9.0 mph 67% 0.00 in
03:04 70.6 °F 59.1 °F 29.83 in SW 3.0 mph 9.0 mph 67% 0.00 in
03:09 70.7 °F 59.2 °F 29.82 in SW 4.0 mph 8.0 mph 67% 0.00 in
03:14 70.7 °F 59.2 °F 29.83 in SW 4.0 mph 9.0 mph 67% 0.00 in
03:19 70.8 °F 59.3 °F 29.83 in SW 4.0 mph 7.0 mph 67% 0.00 in
03:24 70.8 °F 59.3 °F 29.83 in WSW 4.0 mph 9.0 mph 67% 0.00 in
03:29 70.8 °F 59.3 °F 29.83 in South 7.0 mph 7.0 mph 67% 0.00 in
03:34 70.9 °F 59.4 °F 29.83 in SSW 4.0 mph 10.0 mph 67% 0.00 in
03:39 70.8 °F 59.3 °F 29.83 in SW 5.0 mph 10.0 mph 67% 0.00 in
03:44 70.6 °F 59.1 °F 29.83 in WSW 5.0 mph 8.0 mph 67% 0.00 in
03:49 70.4 °F 59.3 °F 29.83 in WSW 3.0 mph 9.0 mph 68% 0.00 in
03:54 69.9 °F 58.9 °F 29.83 in SW 4.0 mph 9.0 mph 68% 0.00 in
03:59 69.4 °F 58.8 °F 29.83 in SW 4.0 mph 8.0 mph 69% 0.00 in
04:04 68.7 °F 58.1 °F 29.83 in SSW 3.0 mph 6.0 mph 69% 0.00 in
04:09 68.1 °F 57.9 °F 29.83 in Calm   5.0 mph 70% 0.00 in
04:14 67.6 °F 57.9 °F 29.83 in WSW 2.0 mph 7.0 mph 71% 0.00 in
04:19 67.3 °F 58.0 °F 29.83 in SW 3.0 mph 7.0 mph 72% 0.00 in
04:24 67.0 °F 57.7 °F 29.83 in SW 3.0 mph 7.0 mph 72% 0.00 in
04:29 66.8 °F 57.9 °F 29.83 in SW 3.0 mph 7.0 mph 73% 0.00 in
04:34 66.4 °F 57.9 °F 29.84 in WSW 2.0 mph 6.0 mph 74% 0.00 in
04:39 65.9 °F 57.4 °F 29.83 in WSW 2.0 mph 5.0 mph 74% 0.00 in
04:44 65.8 °F 57.3 °F 29.84 in SSW 4.0 mph 5.0 mph 74% 0.00 in
04:49 65.8 °F 57.7 °F 29.84 in WSW 3.0 mph 6.0 mph 75% 0.00 in
04:54 65.9 °F 57.7 °F 29.84 in WSW 4.0 mph 8.0 mph 75% 0.00 in
04:59 65.8 °F 57.7 °F 29.84 in WSW 2.0 mph 5.0 mph 75% 0.00 in
05:04 65.9 °F 57.7 °F 29.84 in SW 3.0 mph 8.0 mph 75% 0.00 in
05:09 66.0 °F 57.5 °F 29.84 in WSW 2.0 mph 7.0 mph 74% 0.00 in
05:14 66.2 °F 58.0 °F 29.85 in WSW 3.0 mph 6.0 mph 75% 0.00 in
05:19 66.4 °F 57.9 °F 29.85 in WSW 3.0 mph 6.0 mph 74% 0.00 in
05:24 66.4 °F 57.9 °F 29.85 in WSW 3.0 mph 6.0 mph 74% 0.00 in
05:29 66.5 °F 58.0 °F 29.85 in WSW 3.0 mph 7.0 mph 74% 0.00 in
05:34 66.7 °F 58.1 °F 29.85 in WSW 3.0 mph 7.0 mph 74% 0.00 in
05:39 67.0 °F 58.1 °F 29.85 in SW 2.0 mph 8.0 mph 73% 0.00 in
05:44 67.2 °F 58.2 °F 29.85 in WSW 4.0 mph 9.0 mph 73% 0.00 in
05:49 67.3 °F 58.0 °F 29.86 in WSW 4.0 mph 10.0 mph 72% 0.00 in
05:54 67.2 °F 58.2 °F 29.86 in WSW 2.0 mph 6.0 mph 73% 0.00 in
05:59 67.0 °F 58.1 °F 29.86 in WSW 2.0 mph 6.0 mph 73% 0.00 in
06:04 66.8 °F 57.9 °F 29.86 in WSW 2.0 mph 8.0 mph 73% 0.00 in
06:09 66.6 °F 58.1 °F 29.87 in WSW 3.0 mph 7.0 mph 74% 0.00 in
06:14 66.8 °F 57.9 °F 29.87 in WSW 3.0 mph 7.0 mph 73% 0.00 in
06:19 67.0 °F 58.4 °F 29.87 in WSW 3.0 mph 6.0 mph 74% 0.00 in
06:24 67.4 °F 58.4 °F 29.87 in WSW 3.0 mph 8.0 mph 73% 0.00 in
06:29 67.7 °F 58.7 °F 29.87 in WSW 3.0 mph 8.0 mph 73% 0.00 in
06:34 67.8 °F 58.4 °F 29.87 in WSW 3.0 mph 8.0 mph 72% 0.00 in
06:39 68.1 °F 58.7 °F 29.87 in WSW 5.0 mph 7.0 mph 72% 0.00 in
06:44 68.3 °F 58.9 °F 29.87 in SW 5.0 mph 8.0 mph 72% 0.00 in
06:49 69.0 °F 59.2 °F 29.87 in WSW 3.0 mph 9.0 mph 71% 0.00 in
06:54 69.6 °F 59.4 °F 29.87 in WSW 7.0 mph 13.0 mph 70% 0.00 in
06:59 69.8 °F 59.6 °F 29.87 in SW 4.0 mph 8.0 mph 70% 0.00 in
07:04 70.4 °F 59.7 °F 29.87 in West 3.0 mph 11.0 mph 69% 0.00 in
07:09 70.7 °F 59.6 °F 29.87 in South 4.0 mph 12.0 mph 68% 0.00 in
07:14 70.9 °F 59.8 °F 29.88 in SW 5.0 mph 12.0 mph 68% 0.00 in
07:19 71.1 °F 60.0 °F 29.88 in WSW 5.0 mph 12.0 mph 68% 0.00 in
07:24 71.4 °F 59.9 °F 29.88 in WSW 5.0 mph 12.0 mph 67% 0.00 in
07:29 71.8 °F 59.8 °F 29.88 in SW 5.0 mph 10.0 mph 66% 0.00 in
07:34 72.2 °F 60.2 °F 29.88 in SW 11.0 mph 13.0 mph 66% 0.00 in
07:39 72.7 °F 60.3 °F 29.89 in SW 5.0 mph 13.0 mph 65% 0.00 in
07:44 73.0 °F 60.1 °F 29.89 in SW 6.0 mph 13.0 mph 64% 0.00 in
07:49 73.1 °F 60.2 °F 29.89 in SW 5.0 mph 13.0 mph 64% 0.00 in
07:54 73.5 °F 60.6 °F 29.89 in SW 5.0 mph 13.0 mph 64% 0.00 in
07:59 73.8 °F 60.4 °F 29.89 in East 3.0 mph 15.0 mph 63% 0.00 in
08:04 74.1 °F 60.7 °F 29.89 in South 7.0 mph 16.0 mph 63% 0.00 in
08:09 74.2 °F 60.8 °F 29.89 in SW 12.0 mph 13.0 mph 63% 0.00 in
08:14 74.5 °F 60.6 °F 29.88 in WSW 7.0 mph 14.0 mph 62% 0.00 in
08:19 74.7 °F 60.4 °F 29.88 in SW 3.0 mph 21.0 mph 61% 0.00 in
08:24 74.7 °F 60.8 °F 29.89 in SW 7.0 mph 13.0 mph 62% 0.00 in
08:29 74.8 °F 60.4 °F 29.89 in SSW 7.0 mph 17.0 mph 61% 0.00 in
08:34 75.0 °F 60.6 °F 29.89 in SW 7.0 mph 17.0 mph 61% 0.00 in
08:39 74.9 °F 60.5 °F 29.89 in SW 7.0 mph 16.0 mph 61% 0.00 in
08:44 75.1 °F 61.2 °F 29.89 in WSW 7.0 mph 13.0 mph 62% 0.00 in
08:49 74.9 °F 60.5 °F 29.90 in SW 6.0 mph 20.0 mph 61% 0.00 in
08:54 74.9 °F 60.5 °F 29.89 in WSW 7.0 mph 17.0 mph 61% 0.00 in
08:59 75.3 °F 60.5 °F 29.90 in West 13.0 mph 18.0 mph 60% 0.00 in
09:04 75.6 °F 60.3 °F 29.90 in WSW 10.0 mph 21.0 mph 59% 0.00 in
09:09 75.8 °F 60.9 °F 29.90 in WSW 9.0 mph 22.0 mph 60% 0.00 in
09:14 76.0 °F 61.1 °F 29.90 in WSW 8.0 mph 22.0 mph 60% 0.00 in
09:19 76.3 °F 59.9 °F 29.90 in WSW 8.0 mph 16.0 mph 57% 0.00 in
09:24 76.6 °F 61.2 °F 29.90 in WSW 11.0 mph 18.0 mph 59% 0.00 in
09:29 76.7 °F 60.3 °F 29.90 in South 13.0 mph 19.0 mph 57% 0.00 in
09:34 76.7 °F 60.8 °F 29.90 in SW 10.0 mph 22.0 mph 58% 0.00 in
09:39 77.0 °F 60.6 °F 29.90 in SW 10.0 mph 23.0 mph 57% 0.00 in
09:44 77.0 °F 61.1 °F 29.90 in WSW 4.0 mph 20.0 mph 58% 0.00 in
09:49 76.6 °F 60.2 °F 29.90 in SSW 11.0 mph 17.0 mph 57% 0.00 in
09:55 77.0 °F 61.1 °F 29.89 in SW 10.0 mph 23.0 mph 58% 0.00 in
10:00 77.2 °F 61.3 °F 29.89 in SW 10.0 mph 23.0 mph 58% 0.00 in
10:05 77.3 °F 60.9 °F 29.89 in WSW 9.0 mph 18.0 mph 57% 0.00 in
10:10 77.5 °F 61.6 °F 29.89 in WSW 8.0 mph 15.0 mph 58% 0.00 in
10:15 77.8 °F 60.8 °F 29.89 in WSW 8.0 mph 15.0 mph 56% 0.00 in
10:20 78.0 °F 61.5 °F 29.88 in SW 9.0 mph 20.0 mph 57% 0.00 in
10:25 78.3 °F 61.8 °F 29.88 in WSW 5.0 mph 16.0 mph 57% 0.00 in
10:30 78.4 °F 61.4 °F 29.88 in West 9.0 mph 21.0 mph 56% 0.00 in
10:35 78.5 °F 62.0 °F 29.88 in West 5.0 mph 16.0 mph 57% 0.00 in
10:40 78.8 °F 61.3 °F 29.88 in West 6.0 mph 16.0 mph 55% 0.00 in
10:45 78.6 °F 61.6 °F 29.88 in SW 4.0 mph 22.0 mph 56% 0.00 in
10:50 79.0 °F 62.5 °F 29.88 in WSW 8.0 mph 22.0 mph 57% 0.00 in
10:55 79.0 °F 61.5 °F 29.88 in WSW 7.0 mph 13.0 mph 55% 0.00 in
11:00 78.8 °F 61.8 °F 29.88 in WSW 8.0 mph 16.0 mph 56% 0.00 in
11:05 78.4 °F 61.4 °F 29.88 in WSW 10.0 mph 27.0 mph 56% 0.00 in
11:10 78.4 °F 61.4 °F 29.88 in WSW 10.0 mph 23.0 mph 56% 0.00 in
11:15 78.7 °F 61.7 °F 29.88 in SW 8.0 mph 21.0 mph 56% 0.00 in
11:20 79.1 °F 61.5 °F 29.88 in WSW 8.0 mph 18.0 mph 55% 0.00 in
11:25 79.6 °F 62.0 °F 29.88 in SW 10.0 mph 18.0 mph 55% 0.00 in
11:30 80.1 °F 62.5 °F 29.88 in WSW 9.0 mph 16.0 mph 55% 0.00 in
11:35 79.6 °F 61.5 °F 29.88 in WSW 10.0 mph 21.0 mph 54% 0.00 in
11:40 79.4 °F 61.3 °F 29.88 in WSW 9.0 mph 23.0 mph 54% 0.00 in
11:45 79.3 °F 61.7 °F 29.89 in SW 11.0 mph 27.0 mph 55% 0.00 in
11:50 78.4 °F 60.9 °F 29.89 in WSW 11.0 mph 29.0 mph 55% 0.00 in
11:55 78.1 °F 61.1 °F 29.89 in West 10.0 mph 22.0 mph 56% 0.00 in
12:00 78.1 °F 61.1 °F 29.88 in WSW 11.0 mph 21.0 mph 56% 0.00 in
12:05 78.7 °F 61.7 °F 29.88 in WNW 7.0 mph 19.0 mph 56% 0.00 in
12:10 79.8 °F 62.2 °F 29.88 in West 7.0 mph 15.0 mph 55% 0.00 in
12:15 80.0 °F 62.4 °F 29.88 in SW 6.0 mph 18.0 mph 55% 0.00 in
12:20 80.2 °F 62.0 °F 29.88 in SW 9.0 mph 21.0 mph 54% 0.00 in
12:25 80.2 °F 62.0 °F 29.87 in SW 10.0 mph 21.0 mph 54% 0.00 in
12:30 80.4 °F 61.7 °F 29.87 in SW 11.0 mph 20.0 mph 53% 0.00 in
12:35 80.6 °F 61.9 °F 29.88 in SW 12.0 mph 25.0 mph 53% 0.00 in
12:40 80.0 °F 61.3 °F 29.87 in WSW 13.0 mph 25.0 mph 53% 0.00 in
12:45 79.3 °F 61.2 °F 29.88 in WSW 15.0 mph 25.0 mph 54% 0.00 in
12:50 79.6 °F 61.5 °F 29.87 in WSW 12.0 mph 25.0 mph 54% 0.00 in
12:55 79.3 °F 60.7 °F 29.87 in WSW 4.0 mph 21.0 mph 53% 0.00 in
13:00 79.2 °F 61.1 °F 29.87 in WSW 10.0 mph 24.0 mph 54% 0.00 in
13:05 79.1 °F 61.0 °F 29.87 in WSW 12.0 mph 19.0 mph 54% 0.00 in
13:10 79.3 °F 61.7 °F 29.87 in WSW 15.0 mph 20.0 mph 55% 0.00 in
13:15 79.4 °F 61.3 °F 29.87 in WSW 11.0 mph 23.0 mph 54% 0.00 in
13:20 79.3 °F 61.2 °F 29.87 in WSW 10.0 mph 23.0 mph 54% 0.00 in
13:25 79.4 °F 60.8 °F 29.86 in WSW 10.0 mph 20.0 mph 53% 0.00 in
13:30 79.3 °F 60.7 °F 29.86 in WSW 11.0 mph 22.0 mph 53% 0.00 in
13:35 79.3 °F 61.2 °F 29.86 in WSW 11.0 mph 20.0 mph 54% 0.00 in
13:40 79.3 °F 60.7 °F 29.86 in WSW 14.0 mph 19.0 mph 53% 0.00 in
13:45 78.9 °F 60.3 °F 29.86 in WNW 10.0 mph 23.0 mph 53% 0.00 in
13:50 78.7 °F 60.1 °F 29.86 in WSW 11.0 mph 23.0 mph 53% 0.00 in
13:55 79.9 °F 62.3 °F 29.86 in WSW 11.0 mph 21.0 mph 55% 0.00 in
14:00 80.2 °F 61.5 °F 29.85 in NNW 6.0 mph 19.0 mph 53% 0.00 in
14:05 80.5 °F 61.3 °F 29.85 in SW 12.0 mph 21.0 mph 52% 0.00 in
14:10 81.1 °F 61.8 °F 29.85 in WSW 9.0 mph 18.0 mph 52% 0.00 in
14:15 81.7 °F 61.2 °F 29.85 in WSW 10.0 mph 22.0 mph 50% 0.00 in
14:20 81.9 °F 61.4 °F 29.85 in WSW 13.0 mph 21.0 mph 50% 0.00 in
14:25 82.2 °F 61.7 °F 29.85 in WSW 11.0 mph 19.0 mph 50% 0.00 in
14:30 82.4 °F 61.9 °F 29.85 in SSW 12.0 mph 21.0 mph 50% 0.00 in
14:35 82.5 °F 61.4 °F 29.85 in West 8.0 mph 19.0 mph 49% 0.00 in
14:40 83.0 °F 60.7 °F 29.85 in WSW 10.0 mph 21.0 mph 47% 0.00 in
14:45 82.3 °F 59.4 °F 29.85 in WSW 11.0 mph 27.0 mph 46% 0.00 in
14:50 81.8 °F 60.8 °F 29.85 in WSW 11.0 mph 27.0 mph 49% 0.00 in
14:55 81.7 °F 60.7 °F 29.85 in WSW 10.0 mph 22.0 mph 49% 0.00 in
15:00 81.8 °F 60.8 °F 29.85 in WSW 10.0 mph 22.0 mph 49% 0.00 in
15:05 81.8 °F 60.2 °F 29.84 in WSW 6.0 mph 21.0 mph 48% 0.00 in
15:10 81.9 °F 59.7 °F 29.84 in WSW 13.0 mph 22.0 mph 47% 0.00 in
15:15 81.7 °F 59.5 °F 29.84 in WSW 10.0 mph 22.0 mph 47% 0.00 in
15:20 82.0 °F 60.4 °F 29.84 in WSW 9.0 mph 20.0 mph 48% 0.00 in
15:25 81.1 °F 59.6 °F 29.84 in SW 10.0 mph 20.0 mph 48% 0.00 in
15:30 80.5 °F 59.0 °F 29.84 in SW 13.0 mph 18.0 mph 48% 0.00 in
15:35 80.4 °F 59.5 °F 29.84 in SSW 11.0 mph 16.0 mph 49% 0.00 in
15:40 80.6 °F 59.7 °F 29.84 in WSW 9.0 mph 20.0 mph 49% 0.00 in
15:45 81.0 °F 60.6 °F 29.84 in WSW 9.0 mph 20.0 mph 50% 0.00 in
15:50 81.4 °F 59.8 °F 29.84 in West 5.0 mph 18.0 mph 48% 0.00 in
15:55 80.9 °F 59.9 °F 29.84 in West 7.0 mph 23.0 mph 49% 0.00 in
16:00 80.8 °F 59.3 °F 29.84 in WNW 6.0 mph 19.0 mph 48% 0.00 in
16:05 80.8 °F 60.4 °F 29.84 in WSW 8.0 mph 19.0 mph 50% 0.00 in
16:10 81.3 °F 60.3 °F 29.84 in WSW 8.0 mph 17.0 mph 49% 0.00 in
16:15 81.3 °F 60.9 °F 29.84 in WNW 6.0 mph 17.0 mph 50% 0.00 in
16:20 81.1 °F 60.1 °F 29.84 in WSW 8.0 mph 17.0 mph 49% 0.00 in
16:25 81.3 °F 60.3 °F 29.83 in WSW 9.0 mph 16.0 mph 49% 0.00 in
16:30 81.6 °F 60.6 °F 29.84 in WSW 8.0 mph 19.0 mph 49% 0.00 in
16:35 81.8 °F 60.8 °F 29.83 in WSW 13.0 mph 20.0 mph 49% 0.00 in
16:40 81.6 °F 60.0 °F 29.83 in WSW 6.0 mph 20.0 mph 48% 0.00 in
16:45 81.4 °F 59.8 °F 29.83 in West 5.0 mph 13.0 mph 48% 0.00 in
16:50 81.4 °F 59.2 °F 29.83 in SW 9.0 mph 18.0 mph 47% 0.00 in
16:55 81.3 °F 59.1 °F 29.83 in SW 10.0 mph 21.0 mph 47% 0.00 in
17:00 81.5 °F 59.9 °F 29.83 in WSW 3.0 mph 14.0 mph 48% 0.00 in
17:05 81.5 °F 60.5 °F 29.83 in WSW 7.0 mph 15.0 mph 49% 0.00 in
17:10 81.5 °F 59.9 °F 29.83 in WSW 8.0 mph 17.0 mph 48% 0.00 in
17:15 81.3 °F 59.7 °F 29.83 in WSW 8.0 mph 17.0 mph 48% 0.00 in
17:20 81.4 °F 60.4 °F 29.83 in WSW 7.0 mph 15.0 mph 49% 0.00 in
17:25 81.8 °F 60.8 °F 29.83 in West 7.0 mph 11.0 mph 49% 0.00 in
17:30 82.0 °F 60.4 °F 29.83 in SW 6.0 mph 13.0 mph 48% 0.00 in
17:35 82.0 °F 60.4 °F 29.83 in WSW 7.0 mph 13.0 mph 48% 0.00 in
17:40 81.5 °F 59.9 °F 29.83 in WSW 4.0 mph 11.0 mph 48% 0.00 in
17:45 80.9 °F 59.9 °F 29.83 in SW 5.0 mph 10.0 mph 49% 0.00 in
17:50 80.4 °F 59.5 °F 29.83 in SW 4.0 mph 12.0 mph 49% 0.00 in
17:55 79.8 °F 59.5 °F 29.83 in WSW 8.0 mph 11.0 mph 50% 0.00 in
18:00 79.8 °F 59.5 °F 29.83 in WSW 5.0 mph 11.0 mph 50% 0.00 in
18:05 79.8 °F 60.1 °F 29.82 in WSW 5.0 mph 10.0 mph 51% 0.00 in
18:10 79.6 °F 60.4 °F 29.83 in SW 5.0 mph 10.0 mph 52% 0.00 in
18:15 79.6 °F 59.9 °F 29.83 in SSW 7.0 mph 8.0 mph 51% 0.00 in
18:20 79.3 °F 60.1 °F 29.83 in SW 7.0 mph 7.0 mph 52% 0.00 in
18:25 78.7 °F 59.0 °F 29.83 in SSW 5.0 mph 10.0 mph 51% 0.00 in
18:30 78.1 °F 59.0 °F 29.83 in SW 6.0 mph 11.0 mph 52% 0.00 in
18:40 77.1 °F 58.6 °F 29.83 in SW 7.0 mph 8.0 mph 53% 0.00 in
18:45 76.5 °F 58.6 °F 29.83 in SW 4.0 mph 8.0 mph 54% 0.00 in
18:50 75.8 °F 58.5 °F 29.83 in SW 4.0 mph 9.0 mph 55% 0.00 in
18:55 75.4 °F 58.1 °F 29.83 in SW 4.0 mph 9.0 mph 55% 0.00 in
19:00 74.9 °F 58.1 °F 29.83 in WSW 5.0 mph 8.0 mph 56% 0.00 in
19:10 73.8 °F 58.1 °F 29.83 in SSW 4.0 mph 8.0 mph 58% 0.00 in
19:15 73.3 °F 57.6 °F 29.83 in SW 2.0 mph 7.0 mph 58% 0.00 in
19:20 73.0 °F 57.8 °F 29.83 in SW 3.0 mph 7.0 mph 59% 0.00 in
19:25 72.7 °F 58.0 °F 29.83 in SW 4.0 mph 7.0 mph 60% 0.00 in
19:30 72.5 °F 57.8 °F 29.83 in SW 3.0 mph 7.0 mph 60% 0.00 in
19:35 72.1 °F 57.9 °F 29.82 in SW 3.0 mph 6.0 mph 61% 0.00 in
19:40 71.6 °F 57.4 °F 29.82 in SSW 3.0 mph 7.0 mph 61% 0.00 in
19:45 71.2 °F 57.1 °F 29.82 in SW 3.0 mph 7.0 mph 61% 0.00 in
19:50 70.9 °F 57.7 °F 29.82 in SW 3.0 mph 6.0 mph 63% 0.00 in
19:55 70.6 °F 57.4 °F 29.82 in South 3.0 mph 5.0 mph 63% 0.00 in
20:00 70.3 °F 57.5 °F 29.81 in SSW 3.0 mph 5.0 mph 64% 0.00 in
20:05 70.1 °F 57.4 °F 29.82 in SSW 1.0 mph 4.0 mph 64% 0.00 in
20:10 69.9 °F 57.6 °F 29.81 in Calm   1.0 mph 65% 0.00 in
20:15 69.6 °F 57.7 °F 29.81 in SW 2.0 mph 3.0 mph 66% 0.00 in
20:20 69.5 °F 57.6 °F 29.81 in Calm   2.0 mph 66% 0.00 in
20:25 69.4 °F 57.5 °F 29.81 in Calm   2.0 mph 66% 0.00 in
20:30 69.2 °F 57.8 °F 29.81 in Calm   1.0 mph 67% 0.00 in
20:35 69.0 °F 57.6 °F 29.81 in Calm     67% 0.00 in
20:40 68.6 °F 57.2 °F 29.80 in Calm     67% 0.00 in
20:45 68.5 °F 57.5 °F 29.80 in Calm     68% 0.00 in
20:50 68.5 °F 57.5 °F 29.80 in Calm     68% 0.00 in
20:55 68.4 °F 57.4 °F 29.80 in Calm     68% 0.00 in
21:00 68.2 °F 57.6 °F 29.80 in Calm     69% 0.00 in
21:05 68.1 °F 57.5 °F 29.80 in Calm     69% 0.00 in
21:10 68.0 °F 57.4 °F 29.80 in Calm     69% 0.00 in
21:15 67.8 °F 57.3 °F 29.79 in Calm     69% 0.00 in
21:20 67.6 °F 57.5 °F 29.80 in Calm     70% 0.00 in
21:25 67.5 °F 57.8 °F 29.80 in Calm     71% 0.00 in
21:30 67.3 °F 57.6 °F 29.80 in Calm     71% 0.00 in
21:35 67.1 °F 57.4 °F 29.80 in Calm     71% 0.00 in
21:40 66.9 °F 57.6 °F 29.79 in Calm     72% 0.00 in
21:45 66.8 °F 57.5 °F 29.80 in Calm     72% 0.00 in
21:50 66.8 °F 57.9 °F 29.80 in Calm     73% 0.00 in
21:55 66.6 °F 57.7 °F 29.80 in Calm     73% 0.00 in
22:00 66.5 °F 58.0 °F 29.80 in Calm     74% 0.00 in
22:05 66.3 °F 57.8 °F 29.80 in Calm     74% 0.00 in
22:10 66.2 °F 57.7 °F 29.80 in Calm     74% 0.00 in
22:15 66.2 °F 58.0 °F 29.79 in Calm     75% 0.00 in
22:20 66.3 °F 58.1 °F 29.80 in Calm     75% 0.00 in
22:25 66.4 °F 58.2 °F 29.79 in Calm     75% 0.00 in
22:30 66.7 °F 58.5 °F 29.80 in Calm     75% 0.00 in
22:35 67.2 °F 58.6 °F 29.79 in Calm     74% 0.00 in
22:40 68.0 °F 59.0 °F 29.80 in Calm   2.0 mph 73% 0.00 in
22:45 68.6 °F 59.2 °F 29.79 in South 1.0 mph 3.0 mph 72% 0.00 in
22:50 69.2 °F 59.4 °F 29.79 in SSW 1.0 mph 3.0 mph 71% 0.00 in
22:55 69.8 °F 59.6 °F 29.79 in SSW 1.0 mph 4.0 mph 70% 0.00 in
23:00 70.3 °F 59.6 °F 29.79 in SSW 3.0 mph 6.0 mph 69% 0.00 in
23:05 71.0 °F 59.9 °F 29.79 in SSW 1.0 mph 5.0 mph 68% 0.00 in
23:10 71.7 °F 60.2 °F 29.79 in SSW 1.0 mph 5.0 mph 67% 0.00 in
23:15 72.2 °F 59.8 °F 29.78 in SSW 2.0 mph 6.0 mph 65% 0.00 in
23:20 72.5 °F 60.1 °F 29.78 in SSW 2.0 mph 6.0 mph 65% 0.00 in
23:25 72.9 °F 59.6 °F 29.79 in SSW 3.0 mph 6.0 mph 63% 0.00 in
23:30 73.4 °F 59.6 °F 29.79 in SSW 3.0 mph 7.0 mph 62% 0.00 in
23:35 73.7 °F 59.9 °F 29.79 in SSW 3.0 mph 7.0 mph 62% 0.00 in
23:40 74.1 °F 59.8 °F 29.79 in SSW 3.0 mph 6.0 mph 61% 0.00 in
23:45 74.3 °F 60.0 °F 29.79 in Calm   5.0 mph 61% 0.00 in
23:50 74.4 °F 59.6 °F 29.79 in SSW 3.0 mph 9.0 mph 60% 0.00 in
23:55 74.6 °F 59.8 °F 29.79 in SW 3.0 mph 9.0 mph 60% 0.00 in
Buffalo, New York, USA
Compliments of Weather Underground - 2.5 mb